createdAt,value
2018-11-11T00:00:46.021Z,55.37
2018-11-11T00:01:46.165Z,55.33
2018-11-11T00:02:46.197Z,55.37
2018-11-11T00:03:47.151Z,55.33
2018-11-11T00:04:45.699Z,55.37
2018-11-11T00:05:45.547Z,55.36
2018-11-11T00:06:45.651Z,55.35
2018-11-11T00:07:45.903Z,55.37
2018-11-11T00:08:45.461Z,55.32
2018-11-11T00:09:45.748Z,55.38
2018-11-11T00:10:45.763Z,55.39
2018-11-11T00:11:45.674Z,55.38
2018-11-11T00:12:45.688Z,55.38
2018-11-11T00:13:45.659Z,55.39
2018-11-11T00:14:45.992Z,55.38
2018-11-11T00:15:45.735Z,55.38
2018-11-11T00:16:45.522Z,55.4
2018-11-11T00:17:45.661Z,55.4
2018-11-11T00:18:45.800Z,55.43
2018-11-11T00:19:45.613Z,55.44
2018-11-11T00:20:45.773Z,55.41
2018-11-11T00:21:47.238Z,55.39
2018-11-11T00:22:45.702Z,55.39
2018-11-11T00:23:45.536Z,55.41
2018-11-11T00:24:45.653Z,55.39
2018-11-11T00:25:45.522Z,55.4
2018-11-11T00:26:45.504Z,55.39
2018-11-11T00:27:45.801Z,55.44
2018-11-11T00:28:47.235Z,55.37
2018-11-11T00:29:45.750Z,55.41
2018-11-11T00:30:45.771Z,55.38
2018-11-11T00:31:45.785Z,55.38
2018-11-11T00:32:46.133Z,55.38
2018-11-11T00:33:45.594Z,55.38
2018-11-11T00:34:45.779Z,55.39
2018-11-11T00:35:45.514Z,55.4
2018-11-11T00:36:46.099Z,55.4
2018-11-11T00:37:45.860Z,55.41
2018-11-11T00:38:45.990Z,55.37
2018-11-11T00:39:46.980Z,55.38
2018-11-11T00:40:45.794Z,55.41
2018-11-11T00:41:45.620Z,55.4
2018-11-11T00:42:45.855Z,55.4
2018-11-11T00:43:45.778Z,55.43
2018-11-11T00:44:45.597Z,55.42
2018-11-11T00:45:45.644Z,55.42
2018-11-11T00:46:45.822Z,55.41
2018-11-11T00:47:45.803Z,55.4
2018-11-11T00:48:45.644Z,55.42
2018-11-11T00:49:45.598Z,55.45
2018-11-11T00:50:45.810Z,55.44
2018-11-11T00:51:46.041Z,55.45
2018-11-11T00:52:45.837Z,55.43
2018-11-11T00:53:46.193Z,55.44
2018-11-11T00:54:45.715Z,55.4
2018-11-11T00:55:45.762Z,55.46
2018-11-11T00:56:45.979Z,55.45
2018-11-11T00:57:45.777Z,55.46
2018-11-11T00:58:45.480Z,55.45
2018-11-11T00:59:45.725Z,55.45
2018-11-11T01:00:45.664Z,55.47
2018-11-11T01:01:45.846Z,55.45
2018-11-11T01:02:45.601Z,55.45
2018-11-11T01:03:45.661Z,55.43
2018-11-11T01:04:45.762Z,55.49
2018-11-11T01:05:45.931Z,55.45
2018-11-11T01:06:45.488Z,55.46
2018-11-11T01:07:45.685Z,55.46
2018-11-11T01:08:45.705Z,55.48
2018-11-11T01:09:45.635Z,55.48
2018-11-11T01:10:45.803Z,55.47
2018-11-11T01:11:45.830Z,55.5
2018-11-11T01:12:46.147Z,55.49
2018-11-11T01:13:45.766Z,55.54
2018-11-11T01:14:45.743Z,55.51
2018-11-11T01:15:45.674Z,55.47
2018-11-11T01:16:45.743Z,55.51
2018-11-11T01:17:45.809Z,55.49
2018-11-11T01:18:45.984Z,55.5
2018-11-11T01:19:46.019Z,55.47
2018-11-11T01:20:45.564Z,55.5
2018-11-11T01:21:45.925Z,55.49
2018-11-11T01:22:46.356Z,55.49
2018-11-11T01:23:46.055Z,55.51
2018-11-11T01:24:45.940Z,55.49
2018-11-11T01:25:45.847Z,55.52
2018-11-11T01:26:45.875Z,55.52
2018-11-11T01:27:45.633Z,55.52
2018-11-11T01:28:46.033Z,55.54
2018-11-11T01:29:46.096Z,55.51
2018-11-11T01:30:45.730Z,55.52
2018-11-11T01:31:45.549Z,55.54
2018-11-11T01:32:45.795Z,55.53
2018-11-11T01:33:45.998Z,55.5
2018-11-11T01:34:45.497Z,55.53
2018-11-11T01:35:45.693Z,55.56
2018-11-11T01:36:45.651Z,55.51
2018-11-11T01:37:45.491Z,55.52
2018-11-11T01:38:45.699Z,55.5
2018-11-11T01:39:45.694Z,55.55
2018-11-11T01:40:45.844Z,55.57
2018-11-11T01:41:45.720Z,55.55
2018-11-11T01:42:46.555Z,55.52
2018-11-11T01:43:45.667Z,55.51
2018-11-11T01:44:45.583Z,55.47
2018-11-11T01:45:45.611Z,55.54
2018-11-11T01:46:45.492Z,55.49
2018-11-11T01:47:46.046Z,55.51
2018-11-11T01:48:45.553Z,55.51
2018-11-11T01:49:45.677Z,55.48
2018-11-11T01:50:45.712Z,55.46
2018-11-11T01:51:45.651Z,55.47
2018-11-11T01:52:45.592Z,55.47
2018-11-11T01:53:45.528Z,55.43
2018-11-11T01:54:45.638Z,55.47
2018-11-11T01:55:45.675Z,55.5
2018-11-11T01:56:45.687Z,55.49
2018-11-11T01:57:45.752Z,55.49
2018-11-11T01:58:45.720Z,55.51
2018-11-11T01:59:46.203Z,55.47
2018-11-11T02:00:45.577Z,55.51
2018-11-11T02:01:45.662Z,55.45
2018-11-11T02:02:45.848Z,55.48
2018-11-11T02:03:45.923Z,55.46
2018-11-11T02:04:45.947Z,55.48
2018-11-11T02:05:45.613Z,55.51
2018-11-11T02:06:45.514Z,55.53
2018-11-11T02:07:45.742Z,55.53
2018-11-11T02:08:45.716Z,55.48
2018-11-11T02:09:46.859Z,55.48
2018-11-11T02:10:45.491Z,55.48
2018-11-11T02:11:45.508Z,55.49
2018-11-11T02:12:45.766Z,55.5
2018-11-11T02:13:45.800Z,55.52
2018-11-11T02:14:45.751Z,55.48
2018-11-11T02:15:45.581Z,55.52
2018-11-11T02:16:45.912Z,55.5
2018-11-11T02:17:46.162Z,55.45
2018-11-11T02:18:45.664Z,55.49
2018-11-11T02:19:45.405Z,55.52
2018-11-11T02:20:45.556Z,55.54
2018-11-11T02:21:47.082Z,55.47
2018-11-11T02:22:46.190Z,55.46
2018-11-11T02:23:45.776Z,55.48
2018-11-11T02:24:45.799Z,55.48
2018-11-11T02:25:45.899Z,55.47
2018-11-11T02:26:45.749Z,55.48
2018-11-11T02:27:45.807Z,55.45
2018-11-11T02:28:45.505Z,55.48
2018-11-11T02:29:45.512Z,55.47
2018-11-11T02:30:45.812Z,55.52
2018-11-11T02:31:45.805Z,55.48
2018-11-11T02:32:45.648Z,55.46
2018-11-11T02:33:45.825Z,55.48
2018-11-11T02:34:45.548Z,55.48
2018-11-11T02:35:46.063Z,55.44
2018-11-11T02:36:45.766Z,55.46
2018-11-11T02:37:47.155Z,55.46
2018-11-11T02:38:45.542Z,55.46
2018-11-11T02:39:46.112Z,55.49
2018-11-11T02:40:45.976Z,55.48
2018-11-11T02:41:45.646Z,55.46
2018-11-11T02:42:45.817Z,55.44
2018-11-11T02:43:45.854Z,55.46
2018-11-11T02:44:45.807Z,55.48
2018-11-11T02:45:45.526Z,55.49
2018-11-11T02:46:45.440Z,55.47
2018-11-11T02:47:45.918Z,55.41
2018-11-11T02:48:46.083Z,55.46
2018-11-11T02:49:45.901Z,55.49
2018-11-11T02:50:45.583Z,55.5
2018-11-11T02:51:45.969Z,55.5
2018-11-11T02:52:45.833Z,55.47
2018-11-11T02:53:45.828Z,55.43
2018-11-11T02:54:45.540Z,55.47
2018-11-11T02:55:45.418Z,55.49
2018-11-11T02:56:45.535Z,55.46
2018-11-11T02:57:45.707Z,55.46
2018-11-11T02:58:45.616Z,55.52
2018-11-11T02:59:45.921Z,55.5
2018-11-11T03:00:45.967Z,55.52
2018-11-11T03:01:46.092Z,55.51
2018-11-11T03:02:45.808Z,55.48
2018-11-11T03:03:45.571Z,55.47
2018-11-11T03:04:45.526Z,55.48
2018-11-11T03:05:45.794Z,55.48
2018-11-11T03:06:45.727Z,55.47
2018-11-11T03:07:45.875Z,55.47
2018-11-11T03:08:45.941Z,55.42
2018-11-11T03:09:45.614Z,55.48
2018-11-11T03:10:45.710Z,55.5
2018-11-11T03:11:45.528Z,55.49
2018-11-11T03:12:45.591Z,55.47
2018-11-11T03:13:45.511Z,55.47
2018-11-11T03:14:45.668Z,55.46
2018-11-11T03:15:45.607Z,55.45
2018-11-11T03:16:45.620Z,55.49
2018-11-11T03:17:45.884Z,55.47
2018-11-11T03:18:45.583Z,55.5
2018-11-11T03:19:45.680Z,55.48
2018-11-11T03:20:45.781Z,55.44
2018-11-11T03:21:45.667Z,55.41
2018-11-11T03:22:45.505Z,55.44
2018-11-11T03:23:45.511Z,55.44
2018-11-11T03:24:45.691Z,55.45
2018-11-11T03:25:45.616Z,55.48
2018-11-11T03:26:45.759Z,55.47
2018-11-11T03:27:45.589Z,55.47
2018-11-11T03:28:45.668Z,55.46
2018-11-11T03:29:45.596Z,55.48
2018-11-11T03:30:45.656Z,55.47
2018-11-11T03:31:45.744Z,55.48
2018-11-11T03:32:45.749Z,55.48
2018-11-11T03:33:45.973Z,55.49
2018-11-11T03:34:45.771Z,55.46
2018-11-11T03:35:45.636Z,55.43
2018-11-11T03:36:45.459Z,55.47
2018-11-11T03:37:45.592Z,55.43
2018-11-11T03:38:45.580Z,55.45
2018-11-11T03:39:45.812Z,55.45
2018-11-11T03:40:45.489Z,55.48
2018-11-11T03:41:45.537Z,55.43
2018-11-11T03:42:46.106Z,55.43
2018-11-11T03:43:45.570Z,55.48
2018-11-11T03:44:45.771Z,55.49
2018-11-11T03:45:45.485Z,55.48
2018-11-11T03:46:45.714Z,55.49
2018-11-11T03:47:45.864Z,55.46
2018-11-11T03:48:45.896Z,55.5
2018-11-11T03:49:45.386Z,55.5
2018-11-11T03:50:45.601Z,55.46
2018-11-11T03:51:45.785Z,55.46
2018-11-11T03:52:45.664Z,55.47
2018-11-11T03:53:45.695Z,55.47
2018-11-11T03:54:45.560Z,55.46
2018-11-11T03:55:45.677Z,55.46
2018-11-11T03:56:45.935Z,55.45
2018-11-11T03:57:45.653Z,55.47
2018-11-11T03:58:47.101Z,55.5
2018-11-11T03:59:46.007Z,55.48
2018-11-11T04:00:45.958Z,55.49
2018-11-11T04:01:45.580Z,55.5
2018-11-11T04:02:45.733Z,55.5
2018-11-11T04:03:45.447Z,55.51
2018-11-11T04:04:45.965Z,55.48
2018-11-11T04:05:45.494Z,55.48
2018-11-11T04:06:45.927Z,55.47
2018-11-11T04:07:45.589Z,55.51
2018-11-11T04:08:46.044Z,55.48
2018-11-11T04:09:46.038Z,55.46
2018-11-11T04:10:45.540Z,55.48
2018-11-11T04:11:45.811Z,55.48
2018-11-11T04:12:45.860Z,55.49
2018-11-11T04:13:46.103Z,55.46
2018-11-11T04:14:45.657Z,55.51
2018-11-11T04:15:45.677Z,55.49
2018-11-11T04:16:45.678Z,55.46
2018-11-11T04:17:45.884Z,55.48
2018-11-11T04:18:45.768Z,55.48
2018-11-11T04:19:45.578Z,55.49
2018-11-11T04:20:45.480Z,55.47
2018-11-11T04:21:46.003Z,55.47
2018-11-11T04:22:45.671Z,55.47
2018-11-11T04:23:45.638Z,55.43
2018-11-11T04:24:45.763Z,55.43
2018-11-11T04:25:45.465Z,55.44
2018-11-11T04:26:45.950Z,55.45
2018-11-11T04:27:45.537Z,55.43
2018-11-11T04:28:45.668Z,55.47
2018-11-11T04:29:45.757Z,55.47
2018-11-11T04:30:45.810Z,55.38
2018-11-11T04:31:45.791Z,55.41
2018-11-11T04:32:45.619Z,55.47
2018-11-11T04:33:45.917Z,55.46
2018-11-11T04:34:45.517Z,55.45
2018-11-11T04:35:45.663Z,55.42
2018-11-11T04:36:45.625Z,55.4
2018-11-11T04:37:45.566Z,55.43
2018-11-11T04:38:45.492Z,55.41
2018-11-11T04:39:45.495Z,55.43
2018-11-11T04:40:45.692Z,55.48
2018-11-11T04:41:45.744Z,55.43
2018-11-11T04:42:45.709Z,55.42
2018-11-11T04:43:45.436Z,55.46
2018-11-11T04:44:45.636Z,55.46
2018-11-11T04:45:45.619Z,55.44
2018-11-11T04:46:45.879Z,55.45
2018-11-11T04:47:45.558Z,55.41
2018-11-11T04:48:45.621Z,55.41
2018-11-11T04:49:45.776Z,55.45
2018-11-11T04:50:45.464Z,55.45
2018-11-11T04:51:45.625Z,55.51
2018-11-11T04:52:46.039Z,55.51
2018-11-11T04:53:45.642Z,55.54
2018-11-11T04:54:45.415Z,55.53
2018-11-11T04:55:45.767Z,55.54
2018-11-11T04:56:45.414Z,55.51
2018-11-11T04:57:45.399Z,55.53
2018-11-11T04:58:45.663Z,55.48
2018-11-11T04:59:45.631Z,55.46
2018-11-11T05:00:45.905Z,55.48
2018-11-11T05:01:45.455Z,55.44
2018-11-11T05:02:45.891Z,55.43
2018-11-11T05:03:45.463Z,55.42
2018-11-11T05:04:47.536Z,55.43
2018-11-11T05:05:45.822Z,55.39
2018-11-11T05:06:45.416Z,55.41
2018-11-11T05:07:45.774Z,55.37
2018-11-11T05:08:45.395Z,55.38
2018-11-11T05:09:45.552Z,55.38
2018-11-11T05:10:45.795Z,55.37
2018-11-11T05:11:45.484Z,55.33
2018-11-11T05:12:45.712Z,55.33
2018-11-11T05:13:45.775Z,55.3
2018-11-11T05:14:45.682Z,55.25
2018-11-11T05:15:45.372Z,55.3
2018-11-11T05:16:45.672Z,55.27
2018-11-11T05:17:45.548Z,55.26
2018-11-11T05:18:45.588Z,55.25
2018-11-11T05:19:45.383Z,55.23
2018-11-11T05:20:45.584Z,55.27
2018-11-11T05:21:47.411Z,55.25
2018-11-11T05:22:45.777Z,55.21
2018-11-11T05:23:46.144Z,55.23
2018-11-11T05:24:45.536Z,55.23
2018-11-11T05:25:45.610Z,55.24
2018-11-11T05:26:45.718Z,55.24
2018-11-11T05:27:45.776Z,55.2
2018-11-11T05:28:45.825Z,55.22
2018-11-11T05:29:45.608Z,55.19
2018-11-11T05:30:46.360Z,55.23
2018-11-11T05:31:45.847Z,55.2
2018-11-11T05:32:45.602Z,55.19
2018-11-11T05:33:45.694Z,55.16
2018-11-11T05:34:45.620Z,55.24
2018-11-11T05:35:45.426Z,55.26
2018-11-11T05:36:45.501Z,55.21
2018-11-11T05:37:45.653Z,55.3
2018-11-11T05:38:45.949Z,55.22
2018-11-11T05:39:45.632Z,55.26
2018-11-11T05:40:45.449Z,55.3
2018-11-11T05:41:46.068Z,55.26
2018-11-11T05:42:46.977Z,55.3
2018-11-11T05:43:45.928Z,55.26
2018-11-11T05:44:45.735Z,55.35
2018-11-11T05:45:45.856Z,55.3
2018-11-11T05:46:45.367Z,55.34
2018-11-11T05:47:45.343Z,55.37
2018-11-11T05:48:45.669Z,55.34
2018-11-11T05:49:45.609Z,55.33
2018-11-11T05:50:45.691Z,55.32
2018-11-11T05:51:45.371Z,55.36
2018-11-11T05:52:46.122Z,55.3
2018-11-11T05:53:45.437Z,55.39
2018-11-11T05:54:45.465Z,55.36
2018-11-11T05:55:45.638Z,55.34
2018-11-11T05:56:45.563Z,55.29
2018-11-11T05:57:45.587Z,55.37
2018-11-11T05:58:45.550Z,55.35
2018-11-11T05:59:45.998Z,55.39
2018-11-11T06:00:45.562Z,55.4
2018-11-11T06:01:45.795Z,55.37
2018-11-11T06:02:45.878Z,55.3
2018-11-11T06:03:45.591Z,55.33
2018-11-11T06:04:45.367Z,55.37
2018-11-11T06:05:45.721Z,55.34
2018-11-11T06:06:45.936Z,55.35
2018-11-11T06:07:45.542Z,55.36
2018-11-11T06:08:45.671Z,55.36
2018-11-11T06:09:45.389Z,55.37
2018-11-11T06:10:45.637Z,55.35
2018-11-11T06:11:45.426Z,55.35
2018-11-11T06:12:45.825Z,55.33
2018-11-11T06:13:45.696Z,55.32
2018-11-11T06:14:45.341Z,55.36
2018-11-11T06:15:45.689Z,55.34
2018-11-11T06:16:46.203Z,55.34
2018-11-11T06:17:45.629Z,55.36
2018-11-11T06:18:45.542Z,55.38
2018-11-11T06:19:45.535Z,55.35
2018-11-11T06:20:45.436Z,55.37
2018-11-11T06:21:45.604Z,55.3
2018-11-11T06:22:45.647Z,55.3
2018-11-11T06:23:45.542Z,55.23
2018-11-11T06:24:45.649Z,55.27
2018-11-11T06:25:45.517Z,55.33
2018-11-11T06:26:46.820Z,55.3
2018-11-11T06:27:45.530Z,55.31
2018-11-11T06:28:46.125Z,55.36
2018-11-11T06:29:45.477Z,55.31
2018-11-11T06:30:45.682Z,55.32
2018-11-11T06:31:45.395Z,55.31
2018-11-11T06:32:45.365Z,55.23
2018-11-11T06:33:45.500Z,55.21
2018-11-11T06:34:45.782Z,55.31
2018-11-11T06:35:45.953Z,55.24
2018-11-11T06:36:45.841Z,55.25
2018-11-11T06:37:45.703Z,55.29
2018-11-11T06:38:45.546Z,55.3
2018-11-11T06:39:45.913Z,55.23
2018-11-11T06:40:45.848Z,55.3
2018-11-11T06:41:45.368Z,55.21
2018-11-11T06:42:45.360Z,55.25
2018-11-11T06:43:45.877Z,55.26
2018-11-11T06:44:45.599Z,55.25
2018-11-11T06:45:45.802Z,55.26
2018-11-11T06:46:45.842Z,55.24
2018-11-11T06:47:45.444Z,55.21
2018-11-11T06:48:45.666Z,55.19
2018-11-11T06:49:45.775Z,55.21
2018-11-11T06:50:45.350Z,55.17
2018-11-11T06:51:45.588Z,55.22
2018-11-11T06:52:45.588Z,55.19
2018-11-11T06:53:45.665Z,55.16
2018-11-11T06:54:45.760Z,55.19
2018-11-11T06:55:45.794Z,55.2
2018-11-11T06:56:45.637Z,55.16
2018-11-11T06:57:45.813Z,55.21
2018-11-11T06:58:45.803Z,55.16
2018-11-11T06:59:45.581Z,55.2
2018-11-11T07:00:45.418Z,55.14
2018-11-11T07:01:45.765Z,55.22
2018-11-11T07:02:45.663Z,55.22
2018-11-11T07:03:45.728Z,55.26
2018-11-11T07:04:46.070Z,55.23
2018-11-11T07:05:45.572Z,55.2
2018-11-11T07:06:45.455Z,55.25
2018-11-11T07:07:45.375Z,55.27
2018-11-11T07:08:45.355Z,55.28
2018-11-11T07:09:45.570Z,55.24
2018-11-11T07:10:45.680Z,55.28
2018-11-11T07:11:46.010Z,55.31
2018-11-11T07:12:45.515Z,55.29
2018-11-11T07:13:46.504Z,55.27
2018-11-11T07:14:45.395Z,55.26
2018-11-11T07:15:45.935Z,55.29
2018-11-11T07:16:45.358Z,55.32
2018-11-11T07:17:45.501Z,55.19
2018-11-11T07:18:45.839Z,55.25
2018-11-11T07:19:45.590Z,55.25
2018-11-11T07:20:45.403Z,55.24
2018-11-11T07:21:45.541Z,55.29
2018-11-11T07:22:45.958Z,55.24
2018-11-11T07:23:47.320Z,55.2
2018-11-11T07:24:45.433Z,55.32
2018-11-11T07:25:45.308Z,55.29
2018-11-11T07:26:45.576Z,55.29
2018-11-11T07:27:45.899Z,55.25
2018-11-11T07:28:45.822Z,55.3
2018-11-11T07:29:45.874Z,55.3
2018-11-11T07:30:45.526Z,55.33
2018-11-11T07:31:46.006Z,55.28
2018-11-11T07:32:45.357Z,55.24
2018-11-11T07:33:45.741Z,55.27
2018-11-11T07:34:45.357Z,55.29
2018-11-11T07:35:46.030Z,55.32
2018-11-11T07:36:46.067Z,55.31
2018-11-11T07:37:45.416Z,55.22
2018-11-11T07:38:45.552Z,55.26
2018-11-11T07:39:45.563Z,55.23
2018-11-11T07:40:45.584Z,55.26
2018-11-11T07:41:45.616Z,55.23
2018-11-11T07:42:45.508Z,55.23
2018-11-11T07:43:45.336Z,55.26
2018-11-11T07:44:45.396Z,55.21
2018-11-11T07:45:45.461Z,55.26
2018-11-11T07:46:45.441Z,55.31
2018-11-11T07:47:46.648Z,55.21
2018-11-11T07:48:45.471Z,55.26
2018-11-11T07:49:45.469Z,55.25
2018-11-11T07:50:45.369Z,55.26
2018-11-11T07:51:46.051Z,55.21
2018-11-11T07:52:45.434Z,55.29
2018-11-11T07:53:45.450Z,55.2
2018-11-11T07:54:46.562Z,55.24
2018-11-11T07:55:45.603Z,55.27
2018-11-11T07:56:45.536Z,55.23
2018-11-11T07:57:45.497Z,55.3
2018-11-11T07:58:45.559Z,55.25
2018-11-11T07:59:45.427Z,55.25
2018-11-11T08:00:45.773Z,55.29
2018-11-11T08:01:47.141Z,55.29
2018-11-11T08:02:45.768Z,55.21
2018-11-11T08:03:45.722Z,55.23
2018-11-11T08:04:45.760Z,55.21
2018-11-11T08:05:45.558Z,55.23
2018-11-11T08:06:45.376Z,55.23
2018-11-11T08:07:45.453Z,55.24
2018-11-11T08:08:45.792Z,55.2
2018-11-11T08:09:45.567Z,55.24
2018-11-11T08:10:45.935Z,55.3
2018-11-11T08:11:45.449Z,55.18
2018-11-11T08:12:45.590Z,55.24
2018-11-11T08:13:45.543Z,55.26
2018-11-11T08:14:45.877Z,55.21
2018-11-11T08:15:45.742Z,55.22
2018-11-11T08:16:46.681Z,55.27
2018-11-11T08:17:45.314Z,55.19
2018-11-11T08:18:46.225Z,55.22
2018-11-11T08:19:45.395Z,55.22
2018-11-11T08:20:45.355Z,55.21
2018-11-11T08:21:45.570Z,55.26
2018-11-11T08:22:45.531Z,55.19
2018-11-11T08:23:45.763Z,55.24
2018-11-11T08:24:45.438Z,55.23
2018-11-11T08:25:45.466Z,55.23
2018-11-11T08:26:45.457Z,55.21
2018-11-11T08:27:45.911Z,55.2
2018-11-11T08:28:45.807Z,55.3
2018-11-11T08:29:45.270Z,55.21
2018-11-11T08:30:45.760Z,55.13
2018-11-11T08:31:45.773Z,55.19
2018-11-11T08:32:45.562Z,55.14
2018-11-11T08:33:45.465Z,55.18
2018-11-11T08:34:45.688Z,55.18
2018-11-11T08:35:45.486Z,55.12
2018-11-11T08:36:45.773Z,55.16
2018-11-11T08:37:45.644Z,55.18
2018-11-11T08:38:45.303Z,55.18
2018-11-11T08:39:46.019Z,55.19
2018-11-11T08:40:45.456Z,55.21
2018-11-11T08:41:45.873Z,55.17
2018-11-11T08:42:45.740Z,55.23
2018-11-11T08:43:45.752Z,55.16
2018-11-11T08:44:45.446Z,55.13
2018-11-11T08:45:45.564Z,55.18
2018-11-11T08:46:45.720Z,55.21
2018-11-11T08:47:45.270Z,55.16
2018-11-11T08:48:45.652Z,55.18
2018-11-11T08:49:45.517Z,55.2
2018-11-11T08:50:45.637Z,55.2
2018-11-11T08:51:45.905Z,55.21
2018-11-11T08:52:45.709Z,55.2
2018-11-11T08:53:45.525Z,55.16
2018-11-11T08:54:45.967Z,55.13
2018-11-11T08:55:45.442Z,55.18
2018-11-11T08:56:45.259Z,55.16
2018-11-11T08:57:46.339Z,55.13
2018-11-11T08:58:45.432Z,55.18
2018-11-11T08:59:45.604Z,55.08
2018-11-11T09:00:45.569Z,55.14
2018-11-11T09:01:45.439Z,55.21
2018-11-11T09:02:45.385Z,55.12
2018-11-11T09:03:45.688Z,55.13
2018-11-11T09:04:45.866Z,55.2
2018-11-11T09:05:45.302Z,55.12
2018-11-11T09:06:45.866Z,55.17
2018-11-11T09:07:45.701Z,55.15
2018-11-11T09:08:45.809Z,55.11
2018-11-11T09:09:45.838Z,55.16
2018-11-11T09:10:45.646Z,55.12
2018-11-11T09:11:45.428Z,55.05
2018-11-11T09:12:45.514Z,55.12
2018-11-11T09:13:45.334Z,55.16
2018-11-11T09:14:45.348Z,55.12
2018-11-11T09:15:45.449Z,55.16
2018-11-11T09:16:45.477Z,55.17
2018-11-11T09:17:45.620Z,55.14
2018-11-11T09:18:45.526Z,55.15
2018-11-11T09:19:45.339Z,55.16
2018-11-11T09:20:45.613Z,55.09
2018-11-11T09:21:45.537Z,55.14
2018-11-11T09:22:45.408Z,55.14
2018-11-11T09:23:46.918Z,55.16
2018-11-11T09:24:45.718Z,55.13
2018-11-11T09:25:45.763Z,55.18
2018-11-11T09:26:45.365Z,55.12
2018-11-11T09:27:45.405Z,55.17
2018-11-11T09:28:45.650Z,55.16
2018-11-11T09:29:48.098Z,55.14
2018-11-11T09:30:45.458Z,55.14
2018-11-11T09:31:45.722Z,55.12
2018-11-11T09:32:45.506Z,55.14
2018-11-11T09:33:45.612Z,55.18
2018-11-11T09:34:45.439Z,55.13
2018-11-11T09:35:45.293Z,55.12
2018-11-11T09:36:45.701Z,55.17
2018-11-11T09:37:45.620Z,55.17
2018-11-11T09:38:46.121Z,55.15
2018-11-11T09:39:45.856Z,55.16
2018-11-11T09:40:45.349Z,55.15
2018-11-11T09:41:45.941Z,55.14
2018-11-11T09:42:45.410Z,55.16
2018-11-11T09:43:45.339Z,55.16
2018-11-11T09:44:45.380Z,55.11
2018-11-11T09:45:45.799Z,55.19
2018-11-11T09:46:45.536Z,55.15
2018-11-11T09:47:46.834Z,55.16
2018-11-11T09:48:45.577Z,55.14
2018-11-11T09:49:45.478Z,55.18
2018-11-11T09:50:45.695Z,55.12
2018-11-11T09:51:46.015Z,55.17
2018-11-11T09:52:47.073Z,55.16
2018-11-11T09:53:45.828Z,55.17
2018-11-11T09:54:45.524Z,55.19
2018-11-11T09:55:45.920Z,55.19
2018-11-11T09:56:45.856Z,55.15
2018-11-11T09:57:45.906Z,55.18
2018-11-11T09:58:47.056Z,55.16
2018-11-11T09:59:46.868Z,55.08
2018-11-11T10:00:45.821Z,55.16
2018-11-11T10:01:45.734Z,55.19
2018-11-11T10:02:45.448Z,55.16
2018-11-11T10:03:45.615Z,55.14
2018-11-11T10:04:46.538Z,55.15
2018-11-11T10:05:45.511Z,55.17
2018-11-11T10:06:47.736Z,55.09
2018-11-11T10:07:46.170Z,55.12
2018-11-11T10:08:45.547Z,55.14
2018-11-11T10:09:45.720Z,55.14
2018-11-11T10:10:45.311Z,55.15
2018-11-11T10:11:45.520Z,55.14
2018-11-11T10:12:45.999Z,55.14
2018-11-11T10:13:45.476Z,55.15
2018-11-11T10:14:45.746Z,55.08
2018-11-11T10:15:45.475Z,55.12
2018-11-11T10:16:45.434Z,55.13
2018-11-11T10:17:45.327Z,55.09
2018-11-11T10:18:45.722Z,55.14
2018-11-11T10:19:45.755Z,55.13
2018-11-11T10:20:46.696Z,55.06
2018-11-11T10:21:45.765Z,55.12
2018-11-11T10:22:45.340Z,55.15
2018-11-11T10:23:45.525Z,55.16
2018-11-11T10:24:45.335Z,55.14
2018-11-11T10:25:45.496Z,55.16
2018-11-11T10:26:45.437Z,55.11
2018-11-11T10:27:45.388Z,55.11
2018-11-11T10:28:45.714Z,55.17
2018-11-11T10:29:46.109Z,55.06
2018-11-11T10:30:45.768Z,55.15
2018-11-11T10:31:45.510Z,55.24
2018-11-11T10:32:45.518Z,55.59
2018-11-11T10:33:45.256Z,55.63
2018-11-11T10:34:45.630Z,55.79
2018-11-11T10:35:45.872Z,55.8
2018-11-11T10:36:45.573Z,56
2018-11-11T10:37:45.386Z,56.09
2018-11-11T10:38:45.512Z,56
2018-11-11T10:39:45.417Z,55.96
2018-11-11T10:40:45.878Z,55.94
2018-11-11T10:41:45.494Z,55.91
2018-11-11T10:42:45.556Z,55.88
2018-11-11T10:43:45.352Z,55.94
2018-11-11T10:44:45.434Z,56.02
2018-11-11T10:45:45.257Z,56.03
2018-11-11T10:46:45.717Z,56.02
2018-11-11T10:47:45.349Z,56.14
2018-11-11T10:48:45.363Z,56.11
2018-11-11T10:49:45.338Z,56.49
2018-11-11T10:50:45.429Z,56.13
2018-11-11T10:51:45.254Z,56.23
2018-11-11T10:52:45.485Z,56.11
2018-11-11T10:53:46.055Z,56.28
2018-11-11T10:54:45.419Z,56.26
2018-11-11T10:55:45.488Z,56.17
2018-11-11T10:56:45.433Z,56.2
2018-11-11T10:57:45.446Z,56.2
2018-11-11T10:58:45.585Z,56.28
2018-11-11T10:59:45.783Z,56.19
2018-11-11T11:00:45.216Z,56.24
2018-11-11T11:01:45.470Z,56.2
2018-11-11T11:02:45.478Z,56.18
2018-11-11T11:03:45.345Z,56.24
2018-11-11T11:04:45.630Z,56.33
2018-11-11T11:05:45.283Z,56.28
2018-11-11T11:06:45.744Z,56.25
2018-11-11T11:07:45.684Z,56.27
2018-11-11T11:08:45.408Z,56.23
2018-11-11T11:09:45.347Z,56.28
2018-11-11T11:10:45.853Z,56.29
2018-11-11T11:11:45.776Z,56.32
2018-11-11T11:12:45.378Z,56.29
2018-11-11T11:13:47.078Z,56.27
2018-11-11T11:14:45.256Z,56.28
2018-11-11T11:15:45.386Z,56.32
2018-11-11T11:16:45.918Z,56.28
2018-11-11T11:17:45.686Z,56.36
2018-11-11T11:18:45.649Z,56.25
2018-11-11T11:19:45.884Z,56.28
2018-11-11T11:20:46.214Z,56.21
2018-11-11T11:21:45.304Z,56.22
2018-11-11T11:22:46.380Z,56.45
2018-11-11T11:23:45.365Z,56.52
2018-11-11T11:24:45.341Z,56.37
2018-11-11T11:25:47.222Z,56.4
2018-11-11T11:26:45.451Z,56.32
2018-11-11T11:27:45.450Z,56.32
2018-11-11T11:28:46.189Z,56.32
2018-11-11T11:29:45.475Z,56.36
2018-11-11T11:30:45.463Z,56.29
2018-11-11T11:31:48.447Z,56.32
2018-11-11T11:32:45.882Z,56.33
2018-11-11T11:33:45.563Z,56.28
2018-11-11T11:34:45.656Z,56.22
2018-11-11T11:35:47.682Z,56.15
2018-11-11T11:36:45.409Z,56.06
2018-11-11T11:37:45.666Z,56.25
2018-11-11T11:38:45.280Z,56.36
2018-11-11T11:39:45.465Z,56.4
2018-11-11T11:40:45.721Z,56.37
2018-11-11T11:41:45.707Z,56.27
2018-11-11T11:42:45.609Z,56.26
2018-11-11T11:43:45.421Z,56.18
2018-11-11T11:44:45.976Z,56.13
2018-11-11T11:45:46.010Z,56.2
2018-11-11T11:46:45.736Z,56.19
2018-11-11T11:47:45.964Z,56.26
2018-11-11T11:48:45.371Z,56.28
2018-11-11T11:49:46.115Z,56.19
2018-11-11T11:50:45.889Z,56.17
2018-11-11T11:51:46.478Z,56.09
2018-11-11T11:52:46.126Z,56.12
2018-11-11T11:53:45.912Z,56.15
2018-11-11T11:54:45.522Z,56.22
2018-11-11T11:55:45.547Z,56.19
2018-11-11T11:56:45.239Z,56.14
2018-11-11T11:57:45.462Z,56.21
2018-11-11T11:58:45.748Z,56.2
2018-11-11T11:59:45.288Z,56.12
2018-11-11T12:00:45.584Z,56.11
2018-11-11T12:01:45.624Z,56.16
2018-11-11T12:02:45.777Z,56.1
2018-11-11T12:03:45.578Z,56.11
2018-11-11T12:04:45.429Z,56.04
2018-11-11T12:05:45.261Z,56.02
2018-11-11T12:06:45.719Z,56.08
2018-11-11T12:07:45.695Z,56.08
2018-11-11T12:08:47.484Z,56.06
2018-11-11T12:09:45.319Z,56.08
2018-11-11T12:10:45.536Z,56.09
2018-11-11T12:11:45.968Z,56.03
2018-11-11T12:12:46.045Z,56.03
2018-11-11T12:13:45.308Z,56.04
2018-11-11T12:14:45.738Z,55.92
2018-11-11T12:15:45.368Z,55.9
2018-11-11T12:16:47.083Z,55.9
2018-11-11T12:17:45.233Z,55.89
2018-11-11T12:18:45.454Z,55.84
2018-11-11T12:19:45.631Z,55.83
2018-11-11T12:20:45.568Z,55.85
2018-11-11T12:21:45.236Z,55.8
2018-11-11T12:22:45.579Z,55.81
2018-11-11T12:23:45.274Z,55.79
2018-11-11T12:24:45.305Z,55.81
2018-11-11T12:25:45.514Z,55.84
2018-11-11T12:26:45.454Z,55.76
2018-11-11T12:27:45.390Z,55.83
2018-11-11T12:28:45.331Z,55.75
2018-11-11T12:29:45.495Z,55.75
2018-11-11T12:30:46.449Z,55.75
2018-11-11T12:31:45.770Z,55.72
2018-11-11T12:32:45.342Z,55.74
2018-11-11T12:33:45.349Z,55.76
2018-11-11T12:34:45.395Z,55.76
2018-11-11T12:35:45.455Z,55.73
2018-11-11T12:36:45.819Z,55.68
2018-11-11T12:37:45.426Z,55.68
2018-11-11T12:38:45.766Z,55.73
2018-11-11T12:39:47.354Z,55.71
2018-11-11T12:40:45.300Z,55.77
2018-11-11T12:41:45.613Z,55.71
2018-11-11T12:42:45.577Z,55.69
2018-11-11T12:43:45.400Z,55.71
2018-11-11T12:44:46.436Z,55.65
2018-11-11T12:45:45.458Z,55.65
2018-11-11T12:46:46.756Z,55.6
2018-11-11T12:47:45.427Z,55.59
2018-11-11T12:48:45.971Z,55.68
2018-11-11T12:49:45.831Z,55.73
2018-11-11T12:50:45.517Z,55.59
2018-11-11T12:51:45.606Z,55.64
2018-11-11T12:52:45.419Z,55.65
2018-11-11T12:53:45.394Z,55.61
2018-11-11T12:54:46.095Z,55.63
2018-11-11T12:55:46.222Z,55.66